createdAt,value
2023-03-24T00:02:05.207Z,99590.03
2023-03-24T00:04:34.143Z,99582.25
2023-03-24T00:07:03.416Z,99587.31
2023-03-24T00:09:32.467Z,99568.53
2023-03-24T00:12:00.906Z,99551.16
2023-03-24T00:14:30.788Z,99585.50
2023-03-24T00:17:00.521Z,99575.03
2023-03-24T00:19:29.101Z,99559.31
2023-03-24T00:22:00.643Z,99565.31
2023-03-24T00:24:29.019Z,99563.44
2023-03-24T00:26:57.867Z,99554.31
2023-03-24T00:29:26.917Z,99546.81
2023-03-24T00:31:55.728Z,99562.63
2023-03-24T00:34:26.183Z,99569.78
2023-03-24T00:36:54.533Z,99558.91
2023-03-24T00:39:22.945Z,99558.22
2023-03-24T00:41:51.325Z,99548.47
2023-03-24T00:44:19.643Z,99560.06
2023-03-24T00:46:57.147Z,99562.75
2023-03-24T00:52:27.435Z,99561.50
2023-03-24T00:54:58.874Z,99568.53
2023-03-24T00:57:29.959Z,99568.34
2023-03-24T00:59:59.008Z,99557.81
2023-03-24T01:02:31.459Z,99512.66
2023-03-24T01:05:02.410Z,99559.63
2023-03-24T01:07:32.244Z,99549.16
2023-03-24T01:10:00.770Z,99518.16
2023-03-24T01:12:32.413Z,99529.88
2023-03-24T01:15:02.958Z,99524.75
2023-03-24T01:17:31.191Z,99526.63
2023-03-24T01:20:00.237Z,99533.16
2023-03-24T01:22:30.863Z,99508.72
2023-03-24T01:25:03.188Z,99493.69
2023-03-24T01:27:31.904Z,99500.91
2023-03-24T01:30:01.859Z,99498.53
2023-03-24T01:32:33.553Z,99496.38
2023-03-24T01:35:01.826Z,99499.91
2023-03-24T01:37:30.135Z,99505.34
2023-03-24T01:39:58.756Z,99497.53
2023-03-24T01:42:29.865Z,99489.38
2023-03-24T01:45:02.500Z,99486.34
2023-03-24T01:47:30.722Z,99479.13
2023-03-24T01:50:02.934Z,99484.38
2023-03-24T01:52:34.512Z,99465.81
2023-03-24T01:55:08.075Z,99463.31
2023-03-24T01:57:41.735Z,99477.06
2023-03-24T02:00:12.724Z,99470.88
2023-03-24T02:02:44.196Z,99456.84
2023-03-24T02:05:14.722Z,99461.97
2023-03-24T02:07:52.982Z,99467.03
2023-03-24T02:10:24.717Z,99466.34
2023-03-24T02:12:54.632Z,99454.09
2023-03-24T02:15:25.455Z,99446.38
2023-03-24T02:18:05.014Z,99439.94
2023-03-24T02:21:02.482Z,99446.25
2023-03-24T02:23:58.810Z,99440.28
2023-03-24T02:26:57.318Z,99426.13
2023-03-24T02:29:59.837Z,99421.28
2023-03-24T02:32:59.726Z,99426.22
2023-03-24T02:36:03.750Z,99409.66
2023-03-24T02:39:13.879Z,99397.19
2023-03-24T02:41:51.639Z,99388.75
2023-03-24T02:44:30.459Z,99394.09
2023-03-24T02:47:05.411Z,99384.03
2023-03-24T02:49:43.004Z,99383.72
2023-03-24T02:52:20.860Z,99373.09
2023-03-24T02:54:54.558Z,99379.38
2023-03-24T02:57:31.811Z,99370.31
2023-03-24T03:00:04.618Z,99349.59
2023-03-24T03:02:37.047Z,99367.03
2023-03-24T03:05:08.546Z,99356.22
2023-03-24T03:07:39.079Z,99346.78
2023-03-24T03:10:16.531Z,99359.34
2023-03-24T03:12:50.675Z,99342.63
2023-03-24T03:15:24.616Z,99342.31
2023-03-24T03:17:59.394Z,99337.84
2023-03-24T03:20:34.961Z,99337.50
2023-03-24T03:23:08.487Z,99323.09
2023-03-24T03:25:42.328Z,99331.91
2023-03-24T03:28:18.132Z,99335.19
2023-03-24T03:30:52.305Z,99315.94
2023-03-24T03:33:27.602Z,99324.28
2023-03-24T03:36:00.062Z,99319.22
2023-03-24T03:38:37.384Z,99300.06
2023-03-24T03:41:09.019Z,99303.88
2023-03-24T03:43:41.236Z,99289.81
2023-03-24T03:46:09.708Z,99295.81
2023-03-24T03:48:39.189Z,99291.13
2023-03-24T03:51:13.725Z,99295.59
2023-03-24T03:53:49.128Z,99288.13
2023-03-24T03:56:20.803Z,99283.34
2023-03-24T03:58:51.093Z,99283.63
2023-03-24T04:01:22.181Z,99272.09
2023-03-24T04:04:20.443Z,99247.34
2023-03-24T04:06:58.843Z,99272.94
2023-03-24T04:09:38.796Z,99258.16
2023-03-24T04:12:25.778Z,99247.56
2023-03-24T04:15:17.341Z,99243.59
2023-03-24T04:18:01.069Z,99245.00
2023-03-24T04:20:38.638Z,99252.44
2023-03-24T04:23:18.582Z,99239.97
2023-03-24T04:25:56.920Z,99244.59
2023-03-24T04:28:31.290Z,99234.66
2023-03-24T04:31:07.440Z,99227.72
2023-03-24T04:33:42.737Z,99226.22
2023-03-24T04:36:19.409Z,99214.50
2023-03-24T04:38:53.422Z,99210.75
2023-03-24T04:41:25.795Z,99213.03
2023-03-24T04:43:58.495Z,99208.69
2023-03-24T04:46:28.736Z,99215.69
2023-03-24T04:48:57.054Z,99203.31
2023-03-24T04:51:30.192Z,99199.88
2023-03-24T04:53:58.702Z,99190.91
2023-03-24T04:56:38.126Z,99176.84
2023-03-24T04:59:08.362Z,99173.28
2023-03-24T05:01:39.352Z,99169.81
2023-03-24T05:04:08.482Z,99162.50
2023-03-24T05:06:36.839Z,99166.28
2023-03-24T05:09:05.741Z,99166.47
2023-03-24T05:11:34.567Z,99145.41
2023-03-24T05:14:02.885Z,99152.19
2023-03-24T05:16:31.594Z,99157.13
2023-03-24T05:19:01.959Z,99115.50
2023-03-24T05:21:31.872Z,99136.25
2023-03-24T05:24:02.132Z,99134.75
2023-03-24T05:26:33.027Z,99135.41
2023-03-24T05:29:01.415Z,99125.94
2023-03-24T05:31:29.828Z,99114.78
2023-03-24T05:33:58.393Z,99127.78
2023-03-24T05:36:28.886Z,99119.19
2023-03-24T05:38:57.152Z,99106.78
2023-03-24T05:41:25.645Z,99102.31
2023-03-24T05:43:53.939Z,99065.41
2023-03-24T05:46:24.523Z,99095.66
2023-03-24T05:48:54.081Z,99095.06
2023-03-24T05:51:22.273Z,99074.13
2023-03-24T05:53:52.546Z,99080.88
2023-03-24T05:56:20.795Z,99077.47
2023-03-24T05:58:49.105Z,99070.25
2023-03-24T06:01:18.507Z,99032.88
2023-03-24T06:03:47.063Z,99059.97
2023-03-24T06:06:16.963Z,99065.34
2023-03-24T06:08:46.348Z,99033.16
2023-03-24T06:11:17.085Z,99052.47
2023-03-24T06:13:45.409Z,99041.56
2023-03-24T06:16:13.997Z,99042.78
2023-03-24T06:18:42.868Z,99039.50
2023-03-24T06:21:11.061Z,99028.78
2023-03-24T06:23:39.517Z,99027.81
2023-03-24T06:26:11.717Z,99016.47
2023-03-24T06:28:42.383Z,99017.25
2023-03-24T06:31:15.260Z,99012.03
2023-03-24T06:33:43.869Z,99007.97
2023-03-24T06:36:13.909Z,99000.00
2023-03-24T06:38:42.913Z,99001.09
2023-03-24T06:41:11.600Z,99000.59
2023-03-24T06:43:41.362Z,98997.66
2023-03-24T06:46:10.351Z,98993.75
2023-03-24T06:48:39.848Z,98977.44
2023-03-24T06:51:09.285Z,98976.09
2023-03-24T06:53:37.939Z,98970.47
2023-03-24T06:56:06.817Z,98958.69
2023-03-24T06:58:35.902Z,98953.41
2023-03-24T07:01:05.649Z,98953.41
2023-03-24T07:03:34.242Z,98953.03
2023-03-24T07:06:02.616Z,98935.25
2023-03-24T07:08:38.164Z,98933.66
2023-03-24T07:11:08.966Z,98919.91
2023-03-24T07:13:37.740Z,98895.63
2023-03-24T07:16:08.606Z,98906.22
2023-03-24T07:18:37.185Z,98890.25
2023-03-24T07:21:05.906Z,98892.06
2023-03-24T07:23:34.356Z,98892.69
2023-03-24T07:26:02.705Z,98884.47
2023-03-24T07:28:31.100Z,98873.56
2023-03-24T07:30:59.774Z,98869.84
2023-03-24T07:33:30.053Z,98867.88
2023-03-24T07:35:59.778Z,98844.56
2023-03-24T07:38:31.710Z,98840.97
2023-03-24T07:41:00.485Z,98815.25
2023-03-24T07:43:28.821Z,98830.16
2023-03-24T07:45:57.243Z,98811.38
2023-03-24T07:48:25.646Z,98808.78
2023-03-24T07:50:55.586Z,98796.22
2023-03-24T07:53:24.157Z,98776.97
2023-03-24T07:55:52.839Z,98772.69
2023-03-24T07:58:21.569Z,98772.50
2023-03-24T08:00:50.123Z,98761.56
2023-03-24T08:03:18.819Z,98766.44
2023-03-24T08:05:47.471Z,98761.16
2023-03-24T08:08:17.219Z,98757.31
2023-03-24T08:10:46.838Z,98754.16
2023-03-24T08:13:15.176Z,98737.03
2023-03-24T08:15:44.218Z,98739.41
2023-03-24T08:18:12.773Z,98726.50
2023-03-24T08:20:41.066Z,98710.16
2023-03-24T08:23:09.303Z,98715.38
2023-03-24T08:25:39.034Z,98704.81
2023-03-24T08:28:07.539Z,98698.13
2023-03-24T08:30:36.465Z,98678.06
2023-03-24T08:33:06.146Z,98643.59
2023-03-24T08:35:39.169Z,98664.13
2023-03-24T08:38:08.040Z,98656.88
2023-03-24T08:40:38.849Z,98651.88
2023-03-24T08:43:09.912Z,98653.03
2023-03-24T08:45:38.393Z,98646.09
2023-03-24T08:48:08.856Z,98640.31
2023-03-24T08:50:39.571Z,98630.06
2023-03-24T08:53:08.213Z,98616.81
2023-03-24T08:55:37.953Z,98613.47
2023-03-24T08:58:10.274Z,98605.84
2023-03-24T09:00:38.501Z,98603.41
2023-03-24T09:03:06.951Z,98580.81
2023-03-24T09:05:54.611Z,98588.16
2023-03-24T09:08:22.871Z,98576.47
2023-03-24T09:10:51.773Z,98574.03
2023-03-24T09:13:22.273Z,98572.19
2023-03-24T09:15:53.054Z,98566.19
2023-03-24T09:18:22.939Z,98533.00
2023-03-24T09:20:52.418Z,98523.09
2023-03-24T09:23:21.361Z,98520.84
2023-03-24T09:25:50.748Z,98523.72
2023-03-24T09:28:21.245Z,98522.53
2023-03-24T09:30:50.417Z,98505.53
2023-03-24T09:33:19.471Z,98502.69
2023-03-24T09:35:47.973Z,98487.19
2023-03-24T09:38:16.579Z,98487.03
2023-03-24T09:40:45.038Z,98483.16
2023-03-24T09:43:24.815Z,98487.28
2023-03-24T09:45:55.925Z,98472.53
2023-03-24T09:48:33.156Z,98473.97
2023-03-24T09:51:06.063Z,98458.88
2023-03-24T09:53:41.910Z,98462.53
2023-03-24T09:56:14.760Z,98460.88
2023-03-24T09:58:47.539Z,98449.13
2023-03-24T10:01:16.932Z,98437.97
2023-03-24T10:03:46.809Z,98435.59
2023-03-24T10:06:23.317Z,98432.91
2023-03-24T10:09:00.385Z,98432.50
2023-03-24T10:11:37.590Z,98421.13
2023-03-24T10:14:19.957Z,98432.16
2023-03-24T10:16:54.267Z,98419.34
2023-03-24T10:19:30.939Z,98415.13
2023-03-24T10:22:05.726Z,98420.69
2023-03-24T10:24:40.151Z,98419.13
2023-03-24T10:27:16.176Z,98404.03
2023-03-24T10:29:47.532Z,98401.13
2023-03-24T10:32:19.872Z,98411.03
2023-03-24T10:34:55.724Z,98412.34
2023-03-24T10:37:24.359Z,98396.41
2023-03-24T10:39:56.562Z,98412.06
2023-03-24T10:42:27.810Z,98416.19
2023-03-24T10:44:58.027Z,98400.66
2023-03-24T10:47:30.145Z,98403.38
2023-03-24T10:50:14.208Z,98410.63
2023-03-24T10:52:49.033Z,98391.84
2023-03-24T10:55:19.928Z,98396.84
2023-03-24T10:57:51.212Z,98402.53
2023-03-24T11:00:27.026Z,98408.06
2023-03-24T11:02:59.145Z,98413.16
2023-03-24T11:05:33.649Z,98418.63
2023-03-24T11:08:16.188Z,98407.66
2023-03-24T11:10:44.773Z,98422.44
2023-03-24T11:13:19.955Z,98421.56
2023-03-24T11:15:59.018Z,98416.44
2023-03-24T11:18:27.282Z,98434.66
2023-03-24T11:21:00.913Z,98433.13
2023-03-24T11:23:31.872Z,98427.84
2023-03-24T11:26:10.821Z,98435.59
2023-03-24T11:28:42.631Z,98433.47
2023-03-24T11:31:18.518Z,98440.59
2023-03-24T11:33:51.165Z,98438.03
2023-03-24T11:36:47.837Z,98447.59
2023-03-24T11:39:20.331Z,98443.03
2023-03-24T11:42:03.187Z,98443.56
2023-03-24T11:44:34.618Z,98429.75
2023-03-24T11:47:11.252Z,98449.91
2023-03-24T11:49:44.645Z,98441.84
2023-03-24T11:52:21.902Z,98447.28
2023-03-24T11:54:50.338Z,98453.00
2023-03-24T11:57:29.409Z,98448.03
2023-03-24T12:00:02.409Z,98447.88
2023-03-24T12:02:48.949Z,98453.94
2023-03-24T12:05:27.845Z,98465.25
2023-03-24T12:08:25.024Z,98451.88
2023-03-24T12:11:05.327Z,98462.03
2023-03-24T12:13:37.871Z,98469.09
2023-03-24T12:16:27.013Z,98468.22
2023-03-24T12:19:35.553Z,98464.06
2023-03-24T12:22:15.406Z,98452.66
2023-03-24T12:24:58.422Z,98443.56
2023-03-24T12:27:37.558Z,98435.00
2023-03-24T12:30:15.758Z,98445.25
2023-03-24T12:32:58.008Z,98482.78
2023-03-24T12:35:49.353Z,98478.94
2023-03-24T12:38:39.820Z,98485.56
2023-03-24T12:41:46.783Z,98515.16
2023-03-24T12:44:44.470Z,98508.63
2023-03-24T12:47:35.480Z,98531.56
2023-03-24T12:50:25.630Z,98528.53
2023-03-24T12:53:14.357Z,98561.72
2023-03-24T12:55:47.021Z,98577.28
2023-03-24T12:58:20.790Z,98590.84
2023-03-24T13:00:59.861Z,98596.00
2023-03-24T13:03:38.861Z,98610.63
2023-03-24T13:06:17.657Z,98643.47
2023-03-24T13:08:56.812Z,98651.84
2023-03-24T13:11:36.249Z,98656.50
2023-03-24T13:14:15.532Z,98645.00
2023-03-24T13:16:47.685Z,98652.47
2023-03-24T13:19:21.655Z,98674.19
2023-03-24T13:21:52.808Z,98661.84
2023-03-24T13:24:24.099Z,98673.41
2023-03-24T13:27:03.085Z,98692.72
2023-03-24T13:29:57.123Z,98698.69
2023-03-24T13:32:38.324Z,98706.22
2023-03-24T13:35:19.773Z,98713.09
2023-03-24T13:37:52.959Z,98717.09
2023-03-24T13:40:25.798Z,98723.59
2023-03-24T13:42:57.149Z,98736.38
2023-03-24T13:45:44.807Z,98745.88
2023-03-24T13:48:31.247Z,98735.47
2023-03-24T13:51:02.489Z,98763.03
2023-03-24T13:53:45.087Z,98754.69
2023-03-24T13:56:25.603Z,98762.84
2023-03-24T13:59:24.716Z,98754.09
2023-03-24T14:02:13.444Z,98768.13
2023-03-24T14:04:49.021Z,98762.44
2023-03-24T14:07:43.936Z,98773.28
2023-03-24T14:10:46.813Z,98781.44
2023-03-24T14:13:47.196Z,98784.53
2023-03-24T14:16:45.530Z,98787.56
2023-03-24T14:19:25.624Z,98783.16
2023-03-24T14:21:58.302Z,98783.13
2023-03-24T14:24:57.465Z,98776.66
2023-03-24T14:27:50.113Z,98795.25
2023-03-24T14:30:50.085Z,98673.19
2023-03-24T14:33:39.170Z,98673.00
2023-03-24T14:36:22.211Z,98683.19
2023-03-24T14:39:45.144Z,98760.84
2023-03-24T14:43:02.477Z,98807.38
2023-03-24T14:46:02.672Z,98805.50
2023-03-24T14:49:21.034Z,98815.34
2023-03-24T14:52:20.379Z,98714.41
2023-03-24T14:55:10.006Z,98809.38
2023-03-24T14:57:58.198Z,98814.53
2023-03-24T15:01:07.759Z,98783.25
2023-03-24T15:03:54.395Z,98651.59
2023-03-24T15:06:36.222Z,98674.56
2023-03-24T15:09:20.293Z,98829.84
2023-03-24T15:12:15.392Z,98803.13
2023-03-24T15:14:55.570Z,98779.72
2023-03-24T15:17:50.124Z,98769.41
2023-03-24T15:20:41.169Z,98769.72
2023-03-24T15:23:24.970Z,98830.50
2023-03-24T15:26:18.462Z,98823.94
2023-03-24T15:29:10.067Z,98688.94
2023-03-24T15:31:50.752Z,98753.38
2023-03-24T15:34:53.752Z,98839.59
2023-03-24T15:37:54.039Z,98686.34
2023-03-24T15:41:04.975Z,98826.25
2023-03-24T15:43:57.189Z,98830.31
2023-03-24T15:46:45.684Z,98846.66
2023-03-24T15:49:33.963Z,98855.41
2023-03-24T15:52:21.274Z,98864.28
2023-03-24T15:55:23.237Z,98863.28
2023-03-24T15:58:08.225Z,98868.25
2023-03-24T16:00:56.499Z,98870.38
2023-03-24T16:03:43.649Z,98740.47
2023-03-24T16:06:34.280Z,98784.81
2023-03-24T16:09:10.894Z,98869.28
2023-03-24T16:11:48.174Z,98855.06
2023-03-24T16:14:33.489Z,98845.53
2023-03-24T16:17:04.152Z,98876.41
2023-03-24T16:19:32.917Z,98875.88
2023-03-24T16:22:01.467Z,98881.56
2023-03-24T16:24:31.076Z,98873.69
2023-03-24T16:26:59.468Z,98868.56
2023-03-24T16:29:30.529Z,98872.72
2023-03-24T16:31:59.061Z,98860.47
2023-03-24T16:34:27.394Z,98878.84
2023-03-24T16:36:56.767Z,98880.31
2023-03-24T16:39:27.405Z,98885.59
2023-03-24T16:41:57.807Z,98894.38
2023-03-24T16:44:26.688Z,98894.16
2023-03-24T16:46:56.635Z,98894.44
2023-03-24T16:49:26.670Z,98849.44
2023-03-24T16:51:55.068Z,98900.38
2023-03-24T16:54:23.928Z,98908.41
2023-03-24T16:56:52.420Z,98889.84
2023-03-24T16:59:22.712Z,98911.47
2023-03-24T17:01:54.296Z,98904.31
2023-03-24T17:04:29.222Z,98891.84
2023-03-24T17:06:58.040Z,98908.09
2023-03-24T17:09:28.710Z,98906.94
2023-03-24T17:11:58.920Z,98913.00
2023-03-24T17:14:30.997Z,98918.50
2023-03-24T17:17:05.043Z,98914.72
2023-03-24T17:19:33.380Z,98919.44
2023-03-24T17:22:04.067Z,98921.41
2023-03-24T17:24:35.905Z,98916.59
2023-03-24T17:27:05.165Z,98928.50
2023-03-24T17:29:36.805Z,98926.16
2023-03-24T17:32:05.055Z,98929.31
2023-03-24T17:34:33.370Z,98937.53
2023-03-24T17:37:01.742Z,98949.91
2023-03-24T17:39:29.997Z,98946.28
2023-03-24T17:42:01.636Z,98918.09
2023-03-24T17:44:30.173Z,98939.03
2023-03-24T17:47:01.298Z,98946.88
2023-03-24T17:49:30.310Z,98941.22
2023-03-24T17:51:58.792Z,98957.53
2023-03-24T17:54:28.369Z,98954.84
2023-03-24T17:56:59.572Z,98958.63
2023-03-24T17:59:28.543Z,98956.50
2023-03-24T18:01:56.941Z,98974.25
2023-03-24T18:04:33.023Z,98960.31
2023-03-24T18:07:02.732Z,98967.56
2023-03-24T18:09:33.754Z,98925.16
2023-03-24T18:12:02.125Z,98979.31
2023-03-24T18:14:33.439Z,98967.81
2023-03-24T18:17:01.862Z,98966.88
2023-03-24T18:19:31.903Z,98971.94
2023-03-24T18:22:00.353Z,98975.53
2023-03-24T18:24:33.198Z,98975.03
2023-03-24T18:30:40.211Z,98931.94
2023-03-24T18:34:18.972Z,98949.88
2023-03-24T18:37:16.045Z,98851.63
2023-03-24T18:40:02.572Z,98894.81
2023-03-24T18:42:45.552Z,98860.19
2023-03-24T18:45:36.363Z,98908.59
2023-03-24T18:48:23.332Z,98866.34
2023-03-24T18:51:12.657Z,98865.59
2023-03-24T18:54:11.853Z,99003.06
2023-03-24T18:56:49.799Z,98924.28
2023-03-24T19:00:03.933Z,98867.69
2023-03-24T19:06:29.050Z,98929.44
2023-03-24T19:13:15.846Z,99016.50
2023-03-24T19:16:39.406Z,98934.84
2023-03-24T19:20:17.443Z,99016.50
2023-03-24T19:22:43.740Z,98896.69
2023-03-24T19:26:10.458Z,98871.28
2023-03-24T19:29:04.150Z,99038.66
2023-03-24T19:32:10.262Z,98878.66
2023-03-24T19:35:12.389Z,98922.38
2023-03-24T19:38:55.935Z,98982.25
2023-03-24T19:41:57.393Z,98878.69
2023-03-24T19:45:04.496Z,98999.09
2023-03-24T19:47:51.733Z,98948.59
2023-03-24T19:50:34.637Z,98945.50
2023-03-24T19:53:17.864Z,99048.63
2023-03-24T19:55:57.354Z,99047.13
2023-03-24T19:59:20.616Z,99016.03
2023-03-24T20:02:04.479Z,98961.06
2023-03-24T20:05:07.170Z,98908.41
2023-03-24T20:08:11.369Z,98902.16
2023-03-24T20:11:04.714Z,98980.84
2023-03-24T20:14:37.468Z,98980.00
2023-03-24T20:17:22.305Z,99007.69
2023-03-24T20:19:57.654Z,99020.78
2023-03-24T20:22:39.704Z,99048.53
2023-03-24T20:25:14.039Z,99042.06
2023-03-24T20:28:11.566Z,99047.56
2023-03-24T20:31:01.357Z,99032.19
2023-03-24T20:33:45.113Z,99061.97
2023-03-24T20:36:29.519Z,99044.56
2023-03-24T20:39:07.658Z,98981.78
2023-03-24T20:41:36.443Z,99049.31
2023-03-24T20:44:16.438Z,99035.06
2023-03-24T20:47:08.174Z,99064.13
2023-03-24T20:49:47.742Z,98928.56
2023-03-24T20:52:51.809Z,99074.94
2023-03-24T20:55:26.144Z,99025.84
2023-03-24T20:58:08.593Z,99067.97
2023-03-24T21:00:43.295Z,99062.91
2023-03-24T21:03:16.509Z,99086.97
2023-03-24T21:06:08.102Z,99060.88
2023-03-24T21:08:49.887Z,99088.72
2023-03-24T21:11:28.979Z,99016.38
2023-03-24T21:14:11.143Z,99088.97
2023-03-24T21:17:02.870Z,99082.47
2023-03-24T21:19:33.040Z,99012.06
2023-03-24T21:22:15.515Z,99009.19
2023-03-24T21:25:02.190Z,99055.38
2023-03-24T21:27:58.375Z,99059.16
2023-03-24T21:30:44.834Z,99106.03
2023-03-24T21:33:33.369Z,99004.75
2023-03-24T21:36:08.414Z,99097.13
2023-03-24T21:38:53.722Z,99057.31
2023-03-24T21:41:33.262Z,99014.84
2023-03-24T21:44:04.832Z,99042.72
2023-03-24T21:46:35.288Z,99093.28
2023-03-24T21:49:18.228Z,98923.69
2023-03-24T21:51:57.739Z,99001.56
2023-03-24T21:55:06.344Z,99098.91
2023-03-24T21:58:17.919Z,98933.53
2023-03-24T22:04:10.864Z,99032.25
2023-03-24T22:06:49.741Z,99096.59
2023-03-24T22:09:41.868Z,98967.09
2023-03-24T22:12:39.383Z,99095.03
2023-03-24T22:15:10.906Z,99078.78
2023-03-24T22:17:40.117Z,99101.47
2023-03-24T22:20:09.897Z,99096.25
2023-03-24T22:22:38.546Z,99100.47
2023-03-24T22:25:09.623Z,99101.34
2023-03-24T22:27:38.415Z,99107.66
2023-03-24T22:30:10.138Z,99097.00
2023-03-24T22:32:39.005Z,99100.56
2023-03-24T22:35:08.935Z,99100.75
2023-03-24T22:37:37.152Z,99091.25
2023-03-24T22:40:06.921Z,99082.91
2023-03-24T22:42:35.552Z,99099.25
2023-03-24T22:45:03.723Z,99111.28
2023-03-24T22:47:33.486Z,99097.63
2023-03-24T22:50:01.779Z,99108.16
2023-03-24T22:52:29.957Z,99109.88
2023-03-24T22:55:01.427Z,99106.44
2023-03-24T22:57:29.655Z,99109.00
2023-03-24T23:00:02.008Z,99119.69
2023-03-24T23:02:31.118Z,99109.66
2023-03-24T23:05:01.003Z,99112.09
2023-03-24T23:07:29.745Z,99122.63
2023-03-24T23:10:00.477Z,99097.38
2023-03-24T23:12:29.272Z,99119.19
2023-03-24T23:14:57.627Z,99117.69
2023-03-24T23:17:29.158Z,99108.06
2023-03-24T23:19:57.775Z,99117.69
2023-03-24T23:22:27.928Z,99114.34
2023-03-24T23:25:01.910Z,99121.38
2023-03-24T23:27:35.120Z,99117.69
2023-03-24T23:30:03.329Z,99125.34
2023-03-24T23:32:34.243Z,99097.38
2023-03-24T23:35:03.716Z,99122.81
2023-03-24T23:37:34.251Z,99117.06
2023-03-24T23:40:09.633Z,99099.00
2023-03-24T23:42:38.399Z,99120.81
2023-03-24T23:45:08.064Z,99099.13
2023-03-24T23:47:37.595Z,99120.97
2023-03-24T23:50:07.415Z,99112.28
2023-03-24T23:52:37.465Z,99130.72
2023-03-24T23:55:06.388Z,99109.06
2023-03-24T23:57:34.535Z,99119.69
